Time;durP1;ratioP1;P1;durP2;ratioP2;P2;SDS_P1;SDS_P2;PMS_P1;PMS_P2;Temp;Humidity;BMP_temperature;BMP_pressure;BME280_temperature;BME280_humidity;BME280_pressure;Samples;Min_cycle;Max_cycle;Signal;HPM_P1;HPM_P2
2023/03/02 00:00:41;;;;;;;7.30;4.77;;;;;;;6.86;100.00;94965.50;5114392;28;20195;-86
2023/03/02 00:03:10;;;;;;;5.87;4.20;;;;;;;6.82;100.00;94956.53;5113926;28;20578;-86
2023/03/02 00:05:40;;;;;;;7.40;5.03;;;;;;;6.84;100.00;94950.19;5113232;28;20257;-85
2023/03/02 00:08:09;;;;;;;7.23;5.17;;;;;;;6.85;100.00;94951.78;5114156;28;20241;-86
2023/03/02 00:10:38;;;;;;;7.87;4.80;;;;;;;6.90;100.00;94955.59;5113618;28;20230;-86
2023/03/02 00:13:05;;;;;;;6.60;5.13;;;;;;;6.90;100.00;94953.03;5112260;28;20184;-86
2023/03/02 00:15:32;;;;;;;7.00;4.40;;;;;;;6.94;100.00;94954.22;5112919;28;20188;-86
2023/03/02 00:17:59;;;;;;;8.50;4.87;;;;;;;6.88;100.00;94942.06;5112637;28;20196;-86
2023/03/02 00:20:26;;;;;;;7.67;4.77;;;;;;;6.79;100.00;94942.19;5112501;28;20203;-86
2023/03/02 00:22:53;;;;;;;6.93;4.67;;;;;;;6.65;100.00;94927.59;5112677;28;20689;-87
2023/03/02 00:25:19;;;;;;;6.53;4.73;;;;;;;6.58;100.00;94931.13;5112383;28;20193;-84
2023/03/02 00:27:48;;;;;;;9.40;5.17;;;;;;;6.59;100.00;94918.00;5112053;28;20600;-84
2023/03/02 00:30:16;;;;;;;8.27;5.40;;;;;;;6.47;100.00;94913.53;5111873;28;20663;-84
2023/03/02 00:32:43;;;;;;;7.90;5.40;;;;;;;6.67;100.00;94930.78;5111077;28;20208;-84
2023/03/02 00:35:10;;;;;;;8.97;5.10;;;;;;;6.45;100.00;94885.34;5111862;28;20197;-84
2023/03/02 00:37:38;;;;;;;8.07;5.00;;;;;;;6.67;100.00;94925.59;5111896;28;20196;-83
2023/03/02 00:40:08;;;;;;;8.83;4.97;;;;;;;6.59;100.00;94924.94;5109868;28;20200;-84
2023/03/02 00:42:35;;;;;;;7.77;4.50;;;;;;;6.50;100.00;94921.69;5099303;28;20254;-85
2023/03/02 00:45:05;;;;;;;5.90;4.60;;;;;;;6.43;100.00;94912.31;5095791;28;20200;-84
2023/03/02 00:47:33;;;;;;;8.13;4.33;;;;;;;6.38;100.00;94904.34;5095523;28;20218;-84
2023/03/02 00:50:01;;;;;;;5.67;4.37;;;;;;;6.25;100.00;94884.38;5095450;28;20205;-84
2023/03/02 00:52:29;;;;;;;5.43;4.30;;;;;;;6.46;100.00;94915.34;5095302;28;20271;-85
2023/03/02 00:54:56;;;;;;;5.63;4.37;;;;;;;6.37;100.00;94895.78;5095297;28;20814;-84
2023/03/02 00:57:23;;;;;;;7.40;5.43;;;;;;;6.40;100.00;94889.47;5095336;28;20200;-84
2023/03/02 00:59:50;;;;;;;10.00;7.13;;;;;;;6.46;100.00;94894.69;5095220;28;20276;-84
2023/03/02 01:02:20;;;;;;;14.77;10.73;;;;;;;6.32;100.00;94892.19;5095578;28;20659;-84
2023/03/02 01:04:47;;;;;;;18.50;12.93;;;;;;;6.33;100.00;94886.00;5098234;28;20196;-83
2023/03/02 01:07:16;;;;;;;26.27;16.63;;;;;;;6.23;100.00;94881.97;5103221;28;20189;-84
2023/03/02 01:09:45;;;;;;;32.57;20.73;;;;;;;6.16;100.00;94888.84;5104612;28;20572;-83
2023/03/02 01:12:12;;;;;;;31.70;21.23;;;;;;;6.17;100.00;94884.50;5095369;28;20216;-84
2023/03/02 01:14:41;;;;;;;26.43;17.50;;;;;;;6.16;100.00;94883.69;5094928;28;20697;-85
2023/03/02 01:17:10;;;;;;;22.50;13.87;;;;;;;6.12;100.00;94871.34;5094884;28;20887;-84
2023/03/02 01:19:40;;;;;;;13.30;8.57;;;;;;;5.96;100.00;94844.03;5095258;28;20188;-84
2023/03/02 01:22:08;;;;;;;6.87;5.30;;;;;;;6.17;100.00;94885.31;5094615;28;20200;-84
2023/03/02 01:24:35;;;;;;;6.90;5.30;;;;;;;6.14;100.00;94867.63;5109337;28;20211;-84
2023/03/02 01:27:02;;;;;;;7.33;3.63;;;;;;;5.96;100.00;94851.75;5115228;28;20725;-84
2023/03/02 01:29:29;;;;;;;5.00;3.37;;;;;;;6.19;100.00;94885.09;5115176;28;20187;-84
2023/03/02 01:31:55;;;;;;;5.30;3.43;;;;;;;5.95;100.00;94855.31;5114587;28;20223;-84
2023/03/02 01:34:22;;;;;;;4.43;3.40;;;;;;;6.03;100.00;94868.09;5115079;28;20184;-84
2023/03/02 01:36:50;;;;;;;4.03;3.20;;;;;;;6.09;100.00;94880.25;5114571;28;20629;-84
2023/03/02 01:39:21;;;;;;;4.03;3.33;;;;;;;6.09;100.00;94882.06;5114784;28;20704;-84
2023/03/02 01:41:49;;;;;;;4.57;3.07;;;;;;;5.91;100.00;94843.78;5115164;28;20198;-86
2023/03/02 01:44:37;;;;;;;5.47;3.23;;;;;;;5.87;100.00;94832.22;5115383;28;20192;-87
2023/03/02 01:47:12;;;;;;;3.77;3.00;;;;;;;6.12;100.00;94871.34;5115024;28;20545;-86
2023/03/02 01:49:43;;;;;;;3.70;2.90;;;;;;;6.16;100.00;94870.78;5115131;28;20230;-86
2023/03/02 01:52:14;;;;;;;3.63;2.83;;;;;;;6.06;100.00;94851.47;5114670;28;20210;-87
2023/03/02 01:54:42;;;;;;;5.83;2.90;;;;;;;6.19;100.00;94867.03;5115034;28;20227;-87
2023/03/02 01:57:10;;;;;;;3.83;2.90;;;;;;;6.04;100.00;94831.00;5115099;28;20203;-86
2023/03/02 01:59:41;;;;;;;3.63;2.80;;;;;;;6.21;100.00;94858.13;5114697;28;20681;-86
2023/03/02 02:02:11;;;;;;;5.17;2.77;;;;;;;6.21;100.00;94868.44;5115178;28;20202;-86
2023/03/02 02:04:42;;;;;;;2.63;2.37;;;;;;;6.16;100.00;94854.50;5114900;28;20720;-86
2023/03/02 02:07:10;;;;;;;4.47;3.10;;;;;;;6.17;100.00;94858.69;5114921;28;20679;-86
2023/03/02 02:09:40;;;;;;;3.53;2.83;;;;;;;6.04;100.00;94851.63;5115016;28;20203;-86
2023/03/02 02:12:13;;;;;;;3.57;2.97;;;;;;;6.12;100.00;94868.75;5114705;28;20220;-86
2023/03/02 02:14:40;;;;;;;3.87;2.70;;;;;;;6.16;100.00;94857.91;5114374;28;20598;-86
2023/03/02 02:17:09;;;;;;;3.27;2.70;;;;;;;6.10;100.00;94842.34;5114549;28;20200;-86
2023/03/02 02:19:47;;;;;;;3.43;3.00;;;;;;;6.23;100.00;94857.97;5114712;28;20297;-85
2023/03/02 02:22:21;;;;;;;2.70;2.50;;;;;;;6.19;100.00;94864.47;5114799;28;20200;-85
2023/03/02 02:24:56;;;;;;;4.30;2.80;;;;;;;6.15;100.00;94870.97;5114306;28;20289;-86
2023/03/02 02:27:32;;;;;;;4.00;2.60;;;;;;;6.20;100.00;94864.25;5114112;28;20736;-86
2023/03/02 02:30:02;;;;;;;3.30;2.77;;;;;;;6.14;100.00;94848.75;5114938;28;20184;-86
2023/03/02 02:32:33;;;;;;;2.70;2.50;;;;;;;6.21;100.00;94862.50;5113972;28;20218;-86
2023/03/02 02:35:05;;;;;;;3.57;2.73;;;;;;;6.24;100.00;94864.69;5114227;28;20182;-86
2023/03/02 02:37:35;;;;;;;3.03;2.60;;;;;;;6.23;100.00;94861.31;5114085;28;20618;-86
2023/03/02 02:40:07;;;;;;;3.90;2.80;;;;;;;6.01;100.00;94838.31;5114392;28;20184;-86
2023/03/02 02:42:39;;;;;;;4.07;2.97;;;;;;;5.95;100.00;94831.28;5114671;28;20207;-86
2023/03/02 02:45:17;;;;;;;4.33;3.00;;;;;;;5.65;100.00;94791.94;5114206;28;20188;-86
2023/03/02 02:47:44;;;;;;;4.10;2.80;;;;;;;5.93;100.00;94831.50;5113651;28;20252;-86
2023/03/02 02:50:18;;;;;;;3.47;2.73;;;;;;;6.08;100.00;94852.06;5113764;28;20190;-83
2023/03/02 02:52:48;;;;;;;4.13;3.00;;;;;;;6.18;100.00;94865.44;5113385;28;20225;-86
2023/03/02 02:55:20;;;;;;;3.40;2.53;;;;;;;6.11;100.00;94851.69;5093485;28;20196;-85
2023/03/02 02:57:49;;;;;;;3.47;2.90;;;;;;;6.04;100.00;94848.25;5094294;28;20636;-84
2023/03/02 03:00:20;;;;;;;5.40;2.97;;;;;;;5.96;100.00;94841.44;5093543;28;20318;-85
2023/03/02 03:02:52;;;;;;;4.60;2.60;;;;;;;5.79;100.00;94821.22;5093443;28;20185;-83
2023/03/02 03:05:19;;;;;;;3.90;2.77;;;;;;;5.88;100.00;94835.63;5093667;28;20183;-84
2023/03/02 03:07:46;;;;;;;4.33;2.80;;;;;;;5.89;100.00;94848.31;5093235;28;20195;-83
2023/03/02 03:10:18;;;;;;;6.03;3.20;;;;;;;5.94;100.00;94845.19;5092876;28;20618;-83
2023/03/02 03:12:47;;;;;;;4.50;2.70;;;;;;;5.97;100.00;94837.91;5092837;28;20223;-84
2023/03/02 03:15:15;;;;;;;3.20;2.40;;;;;;;6.01;100.00;94843.47;5092556;28;20283;-84
2023/03/02 03:17:48;;;;;;;3.60;2.37;;;;;;;5.99;100.00;94837.69;5092884;28;20193;-83
2023/03/02 03:20:17;;;;;;;5.20;2.80;;;;;;;5.88;100.00;94825.31;5093158;28;20199;-85
2023/03/02 03:22:44;;;;;;;6.00;2.80;;;;;;;5.95;100.00;94834.69;5093221;28;20196;-85
2023/03/02 03:25:14;;;;;;;4.50;2.67;;;;;;;6.01;100.00;94846.03;5112211;28;20215;-83
2023/03/02 03:27:42;;;;;;;3.93;2.50;;;;;;;5.99;100.00;94846.25;5113049;28;20247;-83
2023/03/02 03:30:10;;;;;;;3.10;2.77;;;;;;;6.04;100.00;94838.75;5113149;28;20274;-86
2023/03/02 03:32:39;;;;;;;3.57;2.77;;;;;;;5.97;100.00;94840.47;5113438;28;20222;-87
2023/03/02 03:35:10;;;;;;;3.40;2.80;;;;;;;5.92;100.00;94834.25;5114004;28;20206;-84
2023/03/02 03:37:37;;;;;;;5.93;2.57;;;;;;;6.03;100.00;94847.44;5113781;28;20212;-86
2023/03/02 03:40:05;;;;;;;3.23;2.57;;;;;;;5.99;100.00;94845.44;5112921;28;20199;-85
2023/03/02 03:42:32;;;;;;;3.93;2.70;;;;;;;6.02;100.00;94848.44;5113574;28;20195;-87
2023/03/02 03:44:59;;;;;;;2.90;2.40;;;;;;;5.82;100.00;94801.03;5113380;28;20580;-88
2023/03/02 03:47:26;;;;;;;2.83;2.53;;;;;;;5.96;100.00;94848.38;5113064;28;20191;-86
2023/03/02 03:49:55;;;;;;;3.43;2.50;;;;;;;5.84;100.00;94816.28;5113011;28;20195;-85
2023/03/02 03:52:29;;;;;;;3.90;2.90;;;;;;;5.95;100.00;94839.03;5113070;28;20223;-85
2023/03/02 03:54:56;;;;;;;4.83;2.80;;;;;;;5.99;100.00;94848.00;5112903;28;20196;-86
2023/03/02 03:57:23;;;;;;;2.80;2.50;;;;;;;5.81;100.00;94832.13;5112718;28;20198;-84
2023/03/02 03:59:50;;;;;;;4.27;2.60;;;;;;;5.97;100.00;94847.41;5112910;28;20195;-83
2023/03/02 04:02:17;;;;;;;2.80;2.50;;;;;;;5.97;100.00;94844.81;5112489;28;20671;-84
2023/03/02 04:04:45;;;;;;;3.30;2.50;;;;;;;5.91;100.00;94854.09;5113085;28;20659;-84
2023/03/02 04:07:13;;;;;;;3.00;2.70;;;;;;;5.73;100.00;94812.44;5112837;28;20331;-84
2023/03/02 04:09:40;;;;;;;3.60;2.90;;;;;;;5.86;100.00;94832.44;5112632;28;20203;-84
2023/03/02 04:12:09;;;;;;;4.87;2.70;;;;;;;5.99;100.00;94850.59;5112644;28;20214;-85
2023/03/02 04:14:36;;;;;;;4.47;2.90;;;;;;;6.00;100.00;94847.03;5116238;28;20203;-84
2023/03/02 04:17:04;;;;;;;3.60;2.50;;;;;;;5.99;100.00;94843.66;5116173;28;20862;-84
2023/03/02 04:19:31;;;;;;;4.83;2.33;;;;;;;5.94;100.00;94843.41;5119153;28;20203;-84
2023/03/02 04:22:00;;;;;;;2.87;2.40;;;;;;;5.84;100.00;94842.09;5122448;28;20685;-84
2023/03/02 04:24:28;;;;;;;2.87;2.37;;;;;;;5.72;100.00;94827.09;5116749;28;20612;-84
2023/03/02 04:26:55;;;;;;;2.80;2.40;;;;;;;5.84;100.00;94836.91;5116178;28;20308;-84
2023/03/02 04:29:22;;;;;;;3.60;2.37;;;;;;;5.96;100.00;94838.06;5116522;28;20196;-83
2023/03/02 04:31:49;;;;;;;3.03;2.70;;;;;;;5.85;100.00;94838.53;5116430;28;20226;-84
2023/03/02 04:34:16;;;;;;;3.27;2.73;;;;;;;5.69;100.00;94806.03;5116167;28;20708;-84
2023/03/02 04:36:43;;;;;;;5.63;3.10;;;;;;;5.92;100.00;94844.56;5116135;28;20567;-86
2023/03/02 04:39:13;;;;;;;3.57;3.00;;;;;;;5.97;100.00;94848.22;5117985;28;20278;-86
2023/03/02 04:41:42;;;;;;;4.40;3.40;;;;;;;5.95;100.00;94844.19;5117176;28;20241;-86
2023/03/02 04:44:08;;;;;;;4.63;3.60;;;;;;;6.00;100.00;94850.38;5116427;28;20669;-87
2023/03/02 04:46:35;;;;;;;4.47;3.67;;;;;;;5.95;100.00;94857.91;5116142;28;20674;-86
2023/03/02 04:49:03;;;;;;;4.90;4.00;;;;;;;5.96;100.00;94862.09;5117004;28;20223;-86
2023/03/02 04:51:35;;;;;;;5.93;4.40;;;;;;;5.70;100.00;94817.97;5116799;28;20674;-86
2023/03/02 04:54:14;;;;;;;8.50;4.37;;;;;;;5.85;100.00;94854.84;5117179;28;20224;-87
2023/03/02 04:56:43;;;;;;;8.03;5.23;;;;;;;5.90;100.00;94862.00;5116667;28;20194;-86
2023/03/02 04:59:09;;;;;;;7.57;5.30;;;;;;;5.82;100.00;94856.94;5116384;28;20204;-86
2023/03/02 05:01:36;;;;;;;9.27;5.47;;;;;;;5.77;100.00;94849.78;5116595;28;20280;-86
2023/03/02 05:04:04;;;;;;;11.20;5.63;;;;;;;5.60;100.00;94823.41;5116647;28;20295;-86
2023/03/02 05:06:30;;;;;;;7.43;5.27;;;;;;;5.57;100.00;94816.03;5116244;28;20187;-86
2023/03/02 05:08:58;;;;;;;6.60;4.73;;;;;;;5.68;100.00;94840.56;5116079;28;20571;-86
2023/03/02 05:11:26;;;;;;;5.60;4.37;;;;;;;5.81;100.00;94856.16;5116359;28;20199;-86
2023/03/02 05:13:56;;;;;;;6.30;4.60;;;;;;;5.77;100.00;94856.72;5115596;28;20226;-86
2023/03/02 05:16:24;;;;;;;6.80;4.60;;;;;;;5.59;100.00;94826.97;5116247;28;20567;-86
2023/03/02 05:18:51;;;;;;;5.27;3.90;;;;;;;5.78;100.00;94853.13;5115753;28;20200;-89
2023/03/02 05:21:19;;;;;;;5.70;3.93;;;;;;;5.84;100.00;94870.44;5115818;28;20195;-86
2023/03/02 05:23:46;;;;;;;7.13;4.70;;;;;;;5.82;100.00;94865.50;5115155;28;20571;-86
2023/03/02 05:26:14;;;;;;;5.87;4.20;;;;;;;5.78;100.00;94860.88;5115644;28;20191;-87
2023/03/02 05:28:44;;;;;;;7.20;4.57;;;;;;;5.83;100.00;94866.28;5115974;28;20253;-86
2023/03/02 05:31:16;;;;;;;7.27;5.13;;;;;;;5.96;100.00;94874.19;5115869;28;20202;-86
2023/03/02 05:33:42;;;;;;;7.57;4.80;;;;;;;5.84;100.00;94852.41;5115298;28;20216;-85
2023/03/02 05:36:09;;;;;;;8.83;4.80;;;;;;;5.93;100.00;94882.28;5115759;28;20191;-87
2023/03/02 05:38:36;;;;;;;6.87;4.80;;;;;;;5.97;100.00;94886.09;5115874;28;20247;-86
2023/03/02 05:41:03;;;;;;;7.60;4.97;;;;;;;5.99;100.00;94886.72;5115715;28;20204;-86
2023/03/02 05:43:30;;;;;;;7.17;4.70;;;;;;;5.98;100.00;94880.75;5115906;28;20199;-86
2023/03/02 05:45:59;;;;;;;6.40;5.10;;;;;;;5.71;100.00;94835.03;5115452;28;20188;-86
2023/03/02 05:48:27;;;;;;;7.53;5.10;;;;;;;6.11;100.00;94877.50;5115564;28;20205;-86
2023/03/02 05:50:54;;;;;;;7.70;5.77;;;;;;;5.93;100.00;94861.66;5116018;28;20199;-87
2023/03/02 05:53:21;;;;;;;7.67;5.40;;;;;;;6.00;100.00;94870.25;5115954;28;20219;-86
2023/03/02 05:55:48;;;;;;;7.13;5.10;;;;;;;6.07;100.00;94882.22;5115081;28;20201;-85
2023/03/02 05:58:17;;;;;;;8.40;6.23;;;;;;;6.07;100.00;94874.47;5114916;28;20682;-85
2023/03/02 06:00:44;;;;;;;11.30;6.13;;;;;;;6.12;100.00;94877.31;5114623;28;20269;-85
2023/03/02 06:03:11;;;;;;;7.73;5.70;;;;;;;6.15;100.00;94873.53;5114364;28;20274;-84
2023/03/02 06:05:40;;;;;;;9.30;5.57;;;;;;;6.26;100.00;94879.00;5114955;28;20200;-84
2023/03/02 06:08:07;;;;;;;6.93;5.20;;;;;;;6.31;100.00;94882.81;5114866;28;20196;-84
2023/03/02 06:10:34;;;;;;;7.07;5.57;;;;;;;6.27;100.00;94885.78;5115115;28;20218;-85
2023/03/02 06:13:01;;;;;;;7.60;5.70;;;;;;;6.16;100.00;94870.00;5114749;28;20216;-84
2023/03/02 06:15:29;;;;;;;7.10;5.50;;;;;;;6.25;100.00;94885.16;5115196;28;20199;-85
2023/03/02 06:17:56;;;;;;;8.03;5.80;;;;;;;6.13;100.00;94868.59;5114322;28;20203;-85
2023/03/02 06:20:23;;;;;;;8.43;5.23;;;;;;;6.23;100.00;94896.66;5114212;28;20199;-85
2023/03/02 06:22:51;;;;;;;9.27;6.00;;;;;;;6.12;100.00;94899.72;5114602;28;20202;-84
2023/03/02 06:25:20;;;;;;;8.47;5.50;;;;;;;6.02;100.00;94892.31;5114261;28;20203;-84
2023/03/02 06:27:50;;;;;;;6.23;4.90;;;;;;;5.82;100.00;94867.25;5113935;28;20259;-84
2023/03/02 06:30:20;;;;;;;7.70;4.80;;;;;;;5.91;100.00;94884.25;5115722;28;20202;-83
2023/03/02 06:32:47;;;;;;;5.67;4.70;;;;;;;5.92;100.00;94888.41;5114801;28;20195;-84
2023/03/02 06:35:14;;;;;;;5.60;4.90;;;;;;;5.97;100.00;94907.53;5114965;28;20202;-85
2023/03/02 06:37:44;;;;;;;6.33;4.77;;;;;;;6.03;100.00;94898.25;5114098;28;20245;-86
2023/03/02 06:40:13;;;;;;;5.70;4.90;;;;;;;6.06;100.00;94895.31;5114024;28;20203;-85
2023/03/02 06:42:41;;;;;;;7.30;5.60;;;;;;;6.18;100.00;94902.38;5113792;28;20188;-84
2023/03/02 06:45:09;;;;;;;6.37;5.37;;;;;;;6.24;100.00;94903.41;5113986;28;20204;-84
2023/03/02 06:47:37;;;;;;;7.73;5.90;;;;;;;6.26;100.00;94896.28;5113799;28;20194;-84
2023/03/02 06:50:05;;;;;;;12.70;6.30;;;;;;;6.16;100.00;94891.44;5113698;28;20244;-84
2023/03/02 06:52:32;;;;;;;9.83;6.87;;;;;;;6.24;100.00;94893.09;5113848;28;20198;-84
2023/03/02 06:54:59;;;;;;;8.83;6.50;;;;;;;6.12;100.00;94886.81;5105241;28;20303;-84
2023/03/02 06:57:32;;;;;;;13.63;7.10;;;;;;;6.20;100.00;94894.44;5113875;28;20188;-86
2023/03/02 06:59:59;;;;;;;9.53;6.70;;;;;;;6.02;100.00;94853.59;5105292;28;20187;-84
2023/03/02 07:02:26;;;;;;;10.50;6.30;;;;;;;6.26;100.00;94893.72;5113511;28;20561;-85
2023/03/02 07:04:53;;;;;;;10.10;6.77;;;;;;;6.33;100.00;94888.59;5113880;28;20196;-85
2023/03/02 07:07:20;;;;;;;9.40;6.20;;;;;;;6.32;100.00;94882.63;5113793;28;20214;-84
2023/03/02 07:09:47;;;;;;;8.50;6.27;;;;;;;6.45;100.00;94900.00;5113180;28;20578;-84
2023/03/02 07:12:14;;;;;;;8.90;6.07;;;;;;;6.45;100.00;94890.50;5113448;28;20203;-85
2023/03/02 07:14:42;;;;;;;9.13;6.40;;;;;;;6.46;100.00;94899.03;5113138;28;20609;-85
2023/03/02 07:17:09;;;;;;;8.80;6.40;;;;;;;6.28;100.00;94866.75;5112785;28;20195;-85
2023/03/02 07:19:37;;;;;;;9.57;6.67;;;;;;;6.44;100.00;94904.38;5112921;28;20300;-85
2023/03/02 07:22:05;;;;;;;8.67;6.90;;;;;;;6.20;100.00;94858.34;5113542;28;20238;-85
2023/03/02 07:24:32;;;;;;;13.87;7.50;;;;;;;6.52;100.00;94899.06;5113062;28;20227;-85
2023/03/02 07:26:58;;;;;;;11.53;7.60;;;;;;;6.56;100.00;94899.50;5119094;27;20234;-85
2023/03/02 07:29:25;;;;;;;13.13;7.00;;;;;;;6.35;100.00;94866.00;5133300;27;20674;-85
2023/03/02 07:31:55;;;;;;;10.20;6.40;;;;;;;6.21;100.00;94875.38;5133952;27;20192;-85
2023/03/02 07:34:23;;;;;;;9.63;6.43;;;;;;;6.21;100.00;94883.94;5134212;27;20211;-85
2023/03/02 07:36:50;;;;;;;8.27;6.23;;;;;;;6.26;100.00;94904.03;5133672;27;20222;-85
2023/03/02 07:39:17;;;;;;;9.63;5.97;;;;;;;6.19;100.00;94887.69;5134104;27;20250;-85
2023/03/02 07:41:44;;;;;;;9.30;5.87;;;;;;;6.37;100.00;94908.69;5133275;27;20203;-85
2023/03/02 07:44:11;;;;;;;10.20;7.37;;;;;;;6.12;100.00;94863.59;5133378;27;20247;-86
2023/03/02 07:46:38;;;;;;;9.20;6.40;;;;;;;6.29;100.00;94870.13;5133061;27;20198;-85
2023/03/02 07:49:06;;;;;;;8.33;6.23;;;;;;;6.57;100.00;94901.09;5133168;27;20194;-86
2023/03/02 07:51:33;;;;;;;6.50;5.73;;;;;;;6.54;100.00;94891.16;5133233;27;20210;-85
2023/03/02 07:54:01;;;;;;;7.10;5.27;;;;;;;6.53;100.00;94889.53;5123446;27;20223;-85
2023/03/02 07:56:28;;;;;;;7.60;5.50;;;;;;;6.57;100.00;94893.38;5112509;28;20651;-85
2023/03/02 07:58:56;;;;;;;10.40;5.37;;;;;;;6.59;100.00;94901.72;5112872;28;20196;-85
2023/03/02 08:01:22;;;;;;;6.70;5.33;;;;;;;6.58;100.00;94906.06;5112435;28;20192;-85
2023/03/02 08:03:49;;;;;;;7.93;5.47;;;;;;;6.60;100.00;94905.91;5114199;28;20199;-85
2023/03/02 08:06:18;;;;;;;8.73;5.77;;;;;;;6.71;100.00;94892.47;5115076;28;20287;-85
2023/03/02 08:08:45;;;;;;;8.57;5.87;;;;;;;6.61;100.00;94900.53;5114876;28;20261;-86
2023/03/02 08:11:13;;;;;;;7.47;5.37;;;;;;;6.64;100.00;94889.84;5113562;28;20195;-85
2023/03/02 08:13:41;;;;;;;9.40;6.40;;;;;;;6.74;100.00;94892.91;5112355;28;20216;-85
2023/03/02 08:16:10;;;;;;;12.73;6.53;;;;;;;6.52;100.00;94862.94;5112535;28;20232;-84
2023/03/02 08:18:38;;;;;;;10.73;6.50;;;;;;;6.59;100.00;94868.94;5112250;28;20906;-85
2023/03/02 08:21:10;;;;;;;10.60;6.67;;;;;;;6.66;100.00;94900.00;5112486;28;20196;-85
2023/03/02 08:23:39;;;;;;;9.97;6.20;;;;;;;6.74;100.00;94889.50;5112260;28;20203;-84
2023/03/02 08:26:06;;;;;;;12.77;6.77;;;;;;;6.70;100.00;94885.69;5112223;28;20669;-84
2023/03/02 08:28:33;;;;;;;8.83;6.57;;;;;;;6.60;100.00;94885.25;5112464;28;20277;-84
2023/03/02 08:31:01;;;;;;;9.90;6.80;;;;;;;6.73;100.00;94887.91;5111955;28;20604;-84
2023/03/02 08:33:30;;;;;;;10.10;7.33;;;;;;;6.93;100.00;94888.84;5111983;28;20651;-85
2023/03/02 08:35:57;;;;;;;10.47;6.97;;;;;;;6.91;100.00;94890.00;5112343;28;20216;-85
2023/03/02 08:38:24;;;;;;;9.03;6.83;;;;;;;6.86;100.00;94888.00;5112570;28;20189;-85
2023/03/02 08:40:53;;;;;;;9.43;7.30;;;;;;;6.75;100.00;94852.38;5112458;28;20219;-87
2023/03/02 08:43:20;;;;;;;10.47;6.90;;;;;;;7.03;100.00;94885.91;5112632;28;20192;-85
2023/03/02 08:45:51;;;;;;;10.50;6.70;;;;;;;7.02;100.00;94887.69;5111943;28;20573;-85
2023/03/02 08:48:18;;;;;;;9.83;6.60;;;;;;;6.77;100.00;94866.69;5111258;28;20188;-84
2023/03/02 08:50:53;;;;;;;10.77;7.00;;;;;;;6.99;100.00;94884.69;5112027;28;20196;-84
2023/03/02 08:53:20;;;;;;;10.47;6.90;;;;;;;6.69;100.00;94853.13;5112323;28;20282;-84
2023/03/02 08:55:47;;;;;;;9.60;6.77;;;;;;;6.99;100.00;94882.91;5112107;28;20196;-85
2023/03/02 08:58:15;;;;;;;12.27;7.27;;;;;;;6.84;100.00;94852.03;5111815;28;20203;-84
2023/03/02 09:00:43;;;;;;;11.27;7.30;;;;;;;7.10;100.00;94890.13;5115467;28;20196;-84
2023/03/02 09:03:10;;;;;;;10.53;7.67;;;;;;;7.21;100.00;94865.56;5115679;28;20192;-84
2023/03/02 09:05:37;;;;;;;11.90;7.90;;;;;;;7.40;100.00;94877.75;5115998;28;20199;-84
2023/03/02 09:08:05;;;;;;;11.33;7.80;;;;;;;7.50;100.00;94880.78;5116362;28;20260;-84
2023/03/02 09:10:32;;;;;;;12.80;8.10;;;;;;;7.54;100.00;94857.91;5115797;28;20578;-83
2023/03/02 09:12:58;;;;;;;15.97;8.17;;;;;;;7.51;100.00;94833.25;5115577;28;20553;-84
2023/03/02 09:15:27;;;;;;;11.63;8.27;;;;;;;7.58;100.00;94838.44;5115569;28;20220;-84
2023/03/02 09:17:53;;;;;;;10.10;7.53;;;;;;;7.88;100.00;94881.09;5115626;28;20200;-84
2023/03/02 09:20:21;;;;;;;12.03;8.30;;;;;;;7.95;100.00;94887.09;5115374;28;20188;-84
2023/03/02 09:22:49;;;;;;;11.10;8.17;;;;;;;7.88;100.00;94857.81;5115464;28;20682;-85
2023/03/02 09:25:18;;;;;;;12.10;8.27;;;;;;;8.19;100.00;94888.34;5094886;28;20764;-87
2023/03/02 09:27:45;;;;;;;12.07;8.03;;;;;;;8.25;100.00;94879.78;5094796;28;20666;-86
2023/03/02 09:30:14;;;;;;;8.90;7.63;;;;;;;8.41;100.00;94882.00;5094776;28;20311;-86
2023/03/02 09:32:42;;;;;;;9.27;7.87;;;;;;;8.18;100.00;94864.22;5094901;28;20200;-86
2023/03/02 09:35:10;;;;;;;10.87;7.87;;;;;;;8.14;100.00;94841.53;5094897;28;20220;-83
2023/03/02 09:37:37;;;;;;;11.93;8.10;;;;;;;8.35;100.00;94870.66;5094392;28;20279;-84
2023/03/02 09:40:11;;;;;;;11.57;7.80;;;;;;;8.43;100.00;94880.00;5095122;28;20311;-85
2023/03/02 09:42:54;;;;;;;11.00;7.73;;;;;;;8.51;100.00;94877.25;5094736;28;20196;-85
2023/03/02 09:45:37;;;;;;;10.73;8.00;;;;;;;8.55;100.00;94862.88;5094249;28;20512;-85
2023/03/02 09:48:16;;;;;;;10.37;7.57;;;;;;;8.51;100.00;94867.66;5086869;28;20184;-84
2023/03/02 09:50:55;;;;;;;9.00;7.37;;;;;;;8.60;100.00;94877.84;5094404;28;20651;-84
2023/03/02 09:53:36;;;;;;;9.97;6.90;;;;;;;8.45;100.00;94855.53;5098910;28;20192;-85
2023/03/02 09:56:03;;;;;;;10.27;7.63;;;;;;;8.43;100.00;94883.41;5114628;28;20584;-85
2023/03/02 09:58:35;;;;;;;10.47;7.90;;;;;;;7.98;100.00;94840.13;5114629;28;20192;-85
2023/03/02 10:01:09;;;;;;;9.77;7.53;;;;;;;7.99;100.00;94872.78;5114761;28;20181;-85
2023/03/02 10:03:45;;;;;;;9.87;8.00;;;;;;;8.11;100.00;94875.59;5114718;28;20946;-84
2023/03/02 10:06:13;;;;;;;11.23;8.40;;;;;;;8.25;100.00;94887.53;5114747;28;20171;-84
2023/03/02 10:08:42;;;;;;;11.93;8.80;;;;;;;8.29;100.00;94879.22;5114735;28;20202;-84
2023/03/02 10:11:17;;;;;;;12.03;8.63;;;;;;;8.29;100.00;94874.03;5114097;28;20548;-84
2023/03/02 10:13:48;;;;;;;11.07;8.37;;;;;;;8.19;100.00;94883.16;5114300;28;20184;-84
2023/03/02 10:16:27;;;;;;;9.03;7.00;;;;;;;7.97;100.00;94865.19;5118044;28;20207;-85
2023/03/02 10:19:03;;;;;;;10.03;7.60;;;;;;;8.04;100.00;94877.34;5115991;28;20673;-84
2023/03/02 10:21:38;;;;;;;12.37;7.90;;;;;;;8.11;100.00;94881.53;5114839;28;20179;-85
2023/03/02 10:24:15;;;;;;;9.73;7.43;;;;;;;7.97;100.00;94883.31;5107738;28;20192;-84
2023/03/02 10:26:43;;;;;;;10.03;7.33;;;;;;;8.06;100.00;94878.75;5114471;28;20239;-84
2023/03/02 10:29:34;;;;;;;10.40;7.70;;;;;;;7.96;100.00;94878.34;5114068;28;20585;-83
2023/03/02 10:32:10;;;;;;;10.57;7.40;;;;;;;8.06;100.00;94875.34;5114673;28;20184;-85
2023/03/02 10:34:38;;;;;;;10.23;7.50;;;;;;;8.07;100.00;94869.19;5114239;28;20227;-84
2023/03/02 10:37:12;;;;;;;10.87;7.73;;;;;;;7.84;100.00;94841.91;5114648;28;20199;-87
2023/03/02 10:39:39;;;;;;;11.60;8.40;;;;;;;7.93;100.00;94858.84;5114916;28;20526;-87
2023/03/02 10:42:13;;;;;;;13.30;9.87;;;;;;;8.02;100.00;94871.59;5114955;28;20203;-86
2023/03/02 10:44:45;;;;;;;13.07;9.80;;;;;;;7.82;100.00;94838.69;5114982;28;20202;-86
2023/03/02 10:47:21;;;;;;;12.13;7.97;;;;;;;7.83;100.00;94871.34;5116121;28;20184;-86
2023/03/02 10:49:49;;;;;;;10.70;7.60;;;;;;;7.54;100.00;94826.88;5116765;28;20184;-85
2023/03/02 10:52:18;;;;;;;9.50;7.53;;;;;;;7.67;100.00;94853.59;5115302;28;20199;-85
2023/03/02 10:54:46;;;;;;;8.57;6.73;;;;;;;7.71;100.00;94865.13;5114176;28;20234;-86
2023/03/02 10:57:37;;;;;;;9.77;6.50;;;;;;;7.72;100.00;94858.16;5114318;28;20218;-85
2023/03/02 11:00:14;;;;;;;11.00;6.50;;;;;;;7.61;100.00;94851.78;5113641;28;20185;-85
2023/03/02 11:02:50;;;;;;;9.80;6.70;;;;;;;7.54;100.00;94826.88;5113738;28;20225;-85
2023/03/02 11:05:29;;;;;;;9.80;6.83;;;;;;;7.68;100.00;94856.97;5113662;28;20459;-86
2023/03/02 11:07:58;;;;;;;10.00;7.17;;;;;;;7.75;100.00;94852.63;5113834;28;20180;-85
2023/03/02 11:10:30;;;;;;;8.00;6.30;;;;;;;7.73;100.00;94839.88;5114068;28;20575;-85
2023/03/02 11:12:59;;;;;;;9.17;6.33;;;;;;;7.77;100.00;94841.06;5113448;28;20200;-85
2023/03/02 11:15:29;;;;;;;9.47;6.50;;;;;;;7.95;100.00;94841.31;5113262;28;20223;-85
2023/03/02 11:18:08;;;;;;;8.57;6.40;;;;;;;7.96;100.00;94845.47;5113097;28;20210;-85
2023/03/02 11:20:40;;;;;;;7.70;6.27;;;;;;;7.88;100.00;94819.78;5113435;28;20192;-84
2023/03/02 11:23:23;;;;;;;8.27;6.40;;;;;;;8.11;100.00;94839.34;5111123;28;20172;-85
2023/03/02 11:25:55;;;;;;;9.70;6.40;;;;;;;8.14;100.00;94833.78;5112197;28;20557;-85
2023/03/02 11:28:45;;;;;;;10.63;6.00;;;;;;;8.14;100.00;94837.13;5113057;28;20276;-84
2023/03/02 11:31:20;;;;;;;10.13;6.90;;;;;;;8.22;100.00;94831.00;5113719;28;20180;-85
2023/03/02 11:34:03;;;;;;;8.33;6.27;;;;;;;8.15;100.00;94820.63;5113456;28;20225;-85
2023/03/02 11:36:43;;;;;;;8.67;6.00;;;;;;;8.12;100.00;94827.97;5112720;28;20325;-86
2023/03/02 11:39:14;;;;;;;8.23;5.87;;;;;;;8.14;100.00;94820.84;5113374;28;20662;-86
2023/03/02 11:41:41;;;;;;;8.27;5.73;;;;;;;8.27;100.00;94828.59;5113702;28;20274;-87